createdAt,value
2018-12-24T00:02:33.861Z,7.50
2018-12-24T00:05:14.301Z,7.50
2018-12-24T00:07:54.840Z,7.40
2018-12-24T00:10:36.105Z,7.40
2018-12-24T00:13:16.510Z,7.40
2018-12-24T00:15:57.578Z,7.30
2018-12-24T00:18:38.529Z,7.30
2018-12-24T00:21:19.844Z,7.20
2018-12-24T00:24:00.445Z,7.30
2018-12-24T00:26:41.980Z,7.30
2018-12-24T00:29:23.107Z,7.20
2018-12-24T00:32:04.357Z,7.20
2018-12-24T00:34:45.427Z,7.20
2018-12-24T00:37:25.989Z,7.20
2018-12-24T00:40:06.398Z,7.10
2018-12-24T00:42:47.074Z,7.10
2018-12-24T00:45:27.849Z,7.10
2018-12-24T00:48:09.646Z,7.00
2018-12-24T00:50:50.871Z,7.00
2018-12-24T00:53:31.632Z,7.00
2018-12-24T00:56:12.977Z,7.00
2018-12-24T00:58:53.561Z,6.90
2018-12-24T01:01:33.921Z,6.90
2018-12-24T01:04:14.578Z,6.90
2018-12-24T01:06:56.225Z,6.80
2018-12-24T01:09:37.413Z,6.80
2018-12-24T01:12:24.482Z,6.70
2018-12-24T01:15:00.273Z,6.70
2018-12-24T01:17:40.732Z,6.70
2018-12-24T01:20:21.214Z,6.60
2018-12-24T01:23:02.691Z,6.60
2018-12-24T01:25:43.230Z,6.60
2018-12-24T01:28:24.235Z,6.60
2018-12-24T01:31:05.504Z,6.50
2018-12-24T01:33:46.193Z,6.60
2018-12-24T01:36:27.137Z,6.60
2018-12-24T01:39:08.642Z,6.60
2018-12-24T01:41:49.552Z,6.60
2018-12-24T01:44:30.365Z,6.60
2018-12-24T01:47:11.506Z,6.70
2018-12-24T01:49:52.584Z,6.60
2018-12-24T01:52:33.125Z,6.70
2018-12-24T01:55:13.777Z,6.60
2018-12-24T01:57:54.336Z,6.60
2018-12-24T02:00:35.602Z,6.60
2018-12-24T02:03:16.438Z,6.60
2018-12-24T02:05:57.384Z,6.50
2018-12-24T02:08:36.632Z,6.50
2018-12-24T02:11:24.977Z,6.50
2018-12-24T02:13:54.112Z,6.40
2018-12-24T02:16:23.545Z,6.30
2018-12-24T02:18:52.692Z,6.20
2018-12-24T02:21:21.894Z,6.20
2018-12-24T02:23:51.052Z,6.10
2018-12-24T02:26:20.381Z,6.00
2018-12-24T02:28:49.467Z,5.90
2018-12-24T02:31:18.939Z,5.90
2018-12-24T02:33:48.314Z,5.80
2018-12-24T02:36:17.385Z,5.80
2018-12-24T02:38:46.634Z,5.70
2018-12-24T02:41:15.702Z,5.70
2018-12-24T02:43:44.796Z,5.70
2018-12-24T02:46:13.895Z,5.60
2018-12-24T02:48:43.511Z,5.60
2018-12-24T02:51:12.852Z,5.60
2018-12-24T02:53:41.918Z,5.50
2018-12-24T02:56:10.996Z,5.50
2018-12-24T02:58:40.164Z,5.50
2018-12-24T03:01:09.167Z,5.50
2018-12-24T03:03:38.747Z,5.50
2018-12-24T03:06:07.894Z,5.40
2018-12-24T03:08:37.066Z,5.40
2018-12-24T03:11:06.150Z,5.40
2018-12-24T03:13:35.356Z,5.30
2018-12-24T03:16:04.429Z,5.30
2018-12-24T03:18:33.510Z,5.40
2018-12-24T03:21:02.879Z,5.30
2018-12-24T03:23:32.018Z,5.30
2018-12-24T03:26:01.011Z,5.20
2018-12-24T03:28:30.344Z,5.20
2018-12-24T03:30:59.577Z,5.10
2018-12-24T03:33:28.838Z,5.10
2018-12-24T03:35:57.904Z,5.10
2018-12-24T03:38:27.438Z,5.20
2018-12-24T03:40:56.554Z,5.20
2018-12-24T03:43:26.162Z,5.10
2018-12-24T03:45:55.980Z,5.10
2018-12-24T03:48:25.072Z,5.10
2018-12-24T03:50:54.204Z,5.00
2018-12-24T03:53:23.304Z,5.20
2018-12-24T03:55:52.634Z,5.10
2018-12-24T03:58:21.793Z,5.10
2018-12-24T04:00:50.877Z,5.10
2018-12-24T04:03:20.026Z,5.10
2018-12-24T04:05:49.376Z,5.10
2018-12-24T04:08:18.500Z,5.00
2018-12-24T04:10:47.829Z,4.90
2018-12-24T04:13:22.395Z,4.80
2018-12-24T04:15:47.694Z,4.70
2018-12-24T04:18:16.831Z,4.70
2018-12-24T04:20:46.161Z,4.80
2018-12-24T04:23:15.462Z,4.70
2018-12-24T04:26:03.647Z,4.60
2018-12-24T04:28:52.412Z,4.50
2018-12-24T04:31:41.008Z,4.40
2018-12-24T04:34:40.942Z,4.40
2018-12-24T04:37:19.146Z,4.50
2018-12-24T04:40:07.329Z,4.80
2018-12-24T04:42:55.533Z,5.00
2018-12-24T04:45:43.773Z,5.00
2018-12-24T04:48:32.283Z,5.00
2018-12-24T04:51:20.922Z,5.00
2018-12-24T04:54:09.634Z,5.00
2018-12-24T04:56:57.811Z,5.00
2018-12-24T04:59:46.270Z,5.00
2018-12-24T05:02:34.450Z,5.00
2018-12-24T05:05:22.897Z,4.90
2018-12-24T05:08:11.389Z,5.00
2018-12-24T05:10:59.814Z,5.10
2018-12-24T05:13:48.271Z,5.00
2018-12-24T05:16:36.849Z,5.20
2018-12-24T05:19:24.987Z,5.20
2018-12-24T05:22:06.302Z,5.10
2018-12-24T05:24:47.079Z,5.00
2018-12-24T05:27:28.053Z,4.90
2018-12-24T05:30:09.029Z,4.80
2018-12-24T05:32:50.629Z,4.80
2018-12-24T05:35:32.215Z,4.80
2018-12-24T05:38:13.599Z,4.70
2018-12-24T05:40:55.021Z,4.70
2018-12-24T05:43:36.063Z,4.70
2018-12-24T05:46:17.354Z,4.70
2018-12-24T05:48:58.833Z,4.60
2018-12-24T05:51:39.941Z,4.60
2018-12-24T05:54:21.084Z,4.60
2018-12-24T05:57:02.192Z,4.50
2018-12-24T05:59:42.698Z,4.50
2018-12-24T06:02:23.669Z,4.50
2018-12-24T06:05:04.994Z,4.50
2018-12-24T06:07:45.554Z,4.50
2018-12-24T06:10:25.981Z,4.50
2018-12-24T06:13:07.392Z,4.50
2018-12-24T06:15:48.579Z,4.40
2018-12-24T06:18:29.412Z,4.60
2018-12-24T06:21:10.536Z,4.50
2018-12-24T06:23:50.884Z,4.50
2018-12-24T06:26:31.535Z,4.50
2018-12-24T06:29:12.754Z,4.40
2018-12-24T06:31:53.131Z,4.40
2018-12-24T06:34:34.630Z,4.30
2018-12-24T06:37:15.931Z,4.20
2018-12-24T06:39:57.438Z,4.20
2018-12-24T06:42:37.867Z,4.20
2018-12-24T06:45:18.262Z,4.30
2018-12-24T06:47:59.774Z,4.60
2018-12-24T06:50:40.782Z,4.70
2018-12-24T06:56:34.629Z,4.80
2018-12-24T06:59:15.818Z,4.80
2018-12-24T07:01:56.286Z,4.80
2018-12-24T07:04:36.787Z,4.80
2018-12-24T07:07:17.932Z,4.80
2018-12-24T07:09:58.382Z,4.90
2018-12-24T07:12:39.234Z,5.00
2018-12-24T07:15:19.902Z,5.00
2018-12-24T07:18:01.265Z,5.10
2018-12-24T07:20:41.796Z,5.00
2018-12-24T07:23:22.248Z,5.10
2018-12-24T07:26:03.510Z,5.00
2018-12-24T07:28:44.233Z,5.00
2018-12-24T07:31:13.320Z,4.90
2018-12-24T07:33:42.422Z,4.90
2018-12-24T07:36:11.537Z,4.90
2018-12-24T07:38:40.842Z,4.90
2018-12-24T07:41:09.871Z,4.90
2018-12-24T07:43:39.203Z,5.00
2018-12-24T07:46:08.561Z,5.00
2018-12-24T07:48:37.537Z,5.00
2018-12-24T07:51:06.708Z,5.00
2018-12-24T07:53:39.253Z,5.00
2018-12-24T07:56:09.045Z,5.00
2018-12-24T07:58:39.488Z,5.00
2018-12-24T08:01:08.655Z,5.00
2018-12-24T08:03:38.053Z,5.10
2018-12-24T08:06:07.269Z,5.00
2018-12-24T08:08:36.316Z,5.10
2018-12-24T08:11:05.669Z,5.10
2018-12-24T08:13:34.997Z,5.10
2018-12-24T08:16:04.380Z,5.10
2018-12-24T08:18:33.460Z,5.10
2018-12-24T08:21:02.624Z,5.20
2018-12-24T08:23:31.682Z,5.20
2018-12-24T08:26:00.941Z,5.30
2018-12-24T08:28:30.115Z,5.40
2018-12-24T08:30:59.635Z,5.40
2018-12-24T08:33:29.141Z,5.50
2018-12-24T08:35:59.613Z,5.50
2018-12-24T08:38:47.791Z,5.60
2018-12-24T08:41:35.973Z,5.50
2018-12-24T08:44:24.437Z,5.40
2018-12-24T08:46:53.457Z,5.40
2018-12-24T08:49:22.965Z,5.30
2018-12-24T08:51:51.958Z,5.30
2018-12-24T08:54:21.302Z,5.20
2018-12-24T08:56:50.480Z,5.30
2018-12-24T08:59:19.917Z,5.40
2018-12-24T09:01:49.321Z,5.60
2018-12-24T09:04:18.384Z,5.90
2018-12-24T09:06:47.657Z,6.20
2018-12-24T09:09:19.018Z,6.40
2018-12-24T09:11:48.064Z,6.40
2018-12-24T09:14:17.219Z,6.30
2018-12-24T09:16:46.364Z,6.20
2018-12-24T09:19:15.848Z,6.10
2018-12-24T09:21:44.941Z,6.20
2018-12-24T09:24:14.060Z,6.30
2018-12-24T09:26:43.427Z,6.20
2018-12-24T09:29:12.518Z,6.20
2018-12-24T09:31:41.604Z,6.30
2018-12-24T09:34:10.917Z,6.30
2018-12-24T09:36:39.993Z,6.40
2018-12-24T09:39:28.213Z,6.50
2018-12-24T09:42:16.655Z,6.50
2018-12-24T09:45:06.553Z,6.60
2018-12-24T09:47:54.770Z,6.60
2018-12-24T09:51:02.030Z,6.60
2018-12-24T09:53:50.204Z,6.60
2018-12-24T09:56:38.374Z,6.40
2018-12-24T09:59:26.551Z,6.20
2018-12-24T10:02:16.393Z,6.00
2018-12-24T10:05:04.645Z,6.00
2018-12-24T10:07:52.841Z,5.90
2018-12-24T10:10:41.297Z,6.00
2018-12-24T10:13:29.757Z,6.30
2018-12-24T10:19:25.474Z,6.60
2018-12-24T10:22:06.239Z,6.70
2018-12-24T10:24:47.042Z,6.70
2018-12-24T10:27:28.290Z,6.80
2018-12-24T10:30:09.584Z,6.90
2018-12-24T10:32:50.352Z,7.00
2018-12-24T10:35:31.176Z,7.00
2018-12-24T10:38:11.853Z,7.00
2018-12-24T10:40:52.940Z,7.00
2018-12-24T10:43:33.429Z,7.00
2018-12-24T10:46:13.825Z,6.90
2018-12-24T10:48:54.566Z,6.80
2018-12-24T10:51:35.611Z,6.60
2018-12-24T10:54:17.016Z,6.50
2018-12-24T10:56:58.329Z,6.50
2018-12-24T10:59:39.454Z,6.50
2018-12-24T11:02:19.980Z,6.50
2018-12-24T11:05:01.241Z,6.50
2018-12-24T11:07:42.347Z,6.60
2018-12-24T11:10:23.089Z,6.70
2018-12-24T11:13:03.870Z,6.90
2018-12-24T11:15:45.786Z,6.90
2018-12-24T11:18:26.889Z,7.00
2018-12-24T11:21:07.303Z,7.00
2018-12-24T11:23:48.147Z,6.90
2018-12-24T11:26:28.892Z,7.00
2018-12-24T11:29:10.067Z,7.00
2018-12-24T11:31:50.693Z,7.00
2018-12-24T11:34:32.266Z,7.10
2018-12-24T11:37:13.321Z,7.10
2018-12-24T11:39:54.661Z,6.90
2018-12-24T11:42:35.873Z,6.80
2018-12-24T11:45:16.910Z,6.70
2018-12-24T11:47:58.137Z,6.60
2018-12-24T11:50:39.420Z,6.50
2018-12-24T11:53:20.352Z,6.50
2018-12-24T11:56:01.283Z,6.40
2018-12-24T11:58:42.441Z,6.40
2018-12-24T12:01:23.160Z,6.40
2018-12-24T12:04:03.557Z,6.40
2018-12-24T12:06:44.049Z,6.40
2018-12-24T12:09:24.877Z,6.40
2018-12-24T12:12:05.265Z,6.40
2018-12-24T12:14:46.138Z,6.40
2018-12-24T12:17:26.817Z,6.40
2018-12-24T12:20:07.529Z,6.40
2018-12-24T12:22:48.100Z,6.40
2018-12-24T12:25:29.163Z,6.40
2018-12-24T12:28:09.537Z,6.40
2018-12-24T12:30:50.504Z,6.50
2018-12-24T12:33:31.689Z,6.60
2018-12-24T12:36:12.789Z,6.80
2018-12-24T12:38:54.195Z,7.00
2018-12-24T12:41:34.726Z,7.10
2018-12-24T12:44:15.257Z,7.10
2018-12-24T12:46:56.289Z,7.10
2018-12-24T12:49:37.629Z,6.90
2018-12-24T12:52:18.208Z,6.70
2018-12-24T12:54:58.666Z,6.50
2018-12-24T12:57:39.271Z,6.40
2018-12-24T13:00:20.644Z,6.30
2018-12-24T13:03:01.254Z,6.20
2018-12-24T13:05:41.628Z,6.10
2018-12-24T13:08:22.480Z,6.10
2018-12-24T13:11:01.750Z,5.90
2018-12-24T13:14:09.316Z,5.80
2018-12-24T13:16:57.494Z,5.70
2018-12-24T13:19:45.962Z,5.60
2018-12-24T13:22:26.866Z,5.60
2018-12-24T13:25:07.571Z,5.60
2018-12-24T13:27:49.065Z,5.60
2018-12-24T13:30:30.336Z,5.60
2018-12-24T13:33:11.150Z,5.60
2018-12-24T13:35:52.057Z,5.60
2018-12-24T13:38:32.741Z,5.60
2018-12-24T13:41:13.237Z,5.50
2018-12-24T13:43:54.445Z,5.40
2018-12-24T13:46:35.982Z,5.20
2018-12-24T13:49:17.265Z,5.10
2018-12-24T13:51:57.944Z,5.00
2018-12-24T13:54:38.374Z,5.00
2018-12-24T13:57:18.966Z,4.80
2018-12-24T13:59:59.621Z,4.70
2018-12-24T14:02:40.654Z,4.70
2018-12-24T14:05:21.385Z,4.60
2018-12-24T14:08:02.378Z,4.50
2018-12-24T14:10:43.539Z,4.60
2018-12-24T14:13:24.116Z,4.60
2018-12-24T14:16:04.665Z,4.60
2018-12-24T14:18:45.581Z,4.60
2018-12-24T14:21:26.254Z,4.60
2018-12-24T14:24:07.863Z,4.60
2018-12-24T14:26:49.053Z,4.50
2018-12-24T14:29:29.438Z,4.60
2018-12-24T14:32:10.253Z,4.60
2018-12-24T14:34:51.562Z,4.50
2018-12-24T14:37:32.109Z,4.50
2018-12-24T14:40:12.797Z,4.60
2018-12-24T14:42:53.666Z,4.70
2018-12-24T14:45:34.085Z,4.70
2018-12-24T14:48:14.598Z,4.70
2018-12-24T14:50:55.436Z,4.60
2018-12-24T14:53:36.789Z,4.50
2018-12-24T14:56:17.218Z,4.50
2018-12-24T14:58:58.077Z,4.40
2018-12-24T15:01:39.068Z,4.40
2018-12-24T15:04:20.048Z,4.40
2018-12-24T15:07:00.590Z,4.30
2018-12-24T15:09:41.169Z,4.20
2018-12-24T15:12:22.081Z,4.20
2018-12-24T15:15:03.079Z,4.10
2018-12-24T15:17:44.385Z,4.00
2018-12-24T15:20:24.857Z,3.90
2018-12-24T15:23:05.518Z,3.80
2018-12-24T15:25:46.549Z,3.80
2018-12-24T15:28:27.817Z,3.70
2018-12-24T15:31:08.408Z,3.60
2018-12-24T15:33:49.321Z,3.50
2018-12-24T15:36:32.213Z,3.40
2018-12-24T15:39:12.893Z,3.40
2018-12-24T15:41:53.520Z,3.30
2018-12-24T15:44:34.334Z,3.20
2018-12-24T15:47:15.235Z,3.20
2018-12-24T15:49:56.507Z,3.10
2018-12-24T15:52:37.734Z,3.00
2018-12-24T15:55:18.848Z,3.00
2018-12-24T15:57:59.961Z,3.10
2018-12-24T16:00:40.761Z,3.00
2018-12-24T16:03:21.759Z,3.10
2018-12-24T16:06:03.309Z,3.10
2018-12-24T16:08:44.347Z,3.10
2018-12-24T16:11:25.535Z,3.20
2018-12-24T16:14:07.035Z,3.20
2018-12-24T16:16:51.101Z,3.20
2018-12-24T16:19:30.486Z,3.20
2018-12-24T16:22:11.925Z,3.20
2018-12-24T16:24:52.429Z,3.20
2018-12-24T16:27:33.559Z,3.20
2018-12-24T16:30:14.829Z,3.10
2018-12-24T16:32:55.990Z,3.10
2018-12-24T16:35:37.132Z,3.00
2018-12-24T16:38:18.049Z,2.90
2018-12-24T16:40:58.924Z,2.90
2018-12-24T16:43:39.757Z,2.90
2018-12-24T16:46:20.378Z,2.80
2018-12-24T16:49:00.788Z,2.80
2018-12-24T16:51:41.398Z,2.80
2018-12-24T16:54:22.116Z,2.80
2018-12-24T16:57:02.535Z,2.70
2018-12-24T16:59:43.053Z,2.70
2018-12-24T17:02:23.778Z,2.70
2018-12-24T17:05:04.140Z,2.60
2018-12-24T17:07:44.839Z,2.60
2018-12-24T17:10:25.469Z,2.60
2018-12-24T17:13:06.094Z,2.50
2018-12-24T17:15:46.526Z,2.50
2018-12-24T17:18:27.162Z,2.40
2018-12-24T17:21:06.453Z,2.30
2018-12-24T17:23:47.694Z,2.10
2018-12-24T17:26:28.899Z,2.00
2018-12-24T17:29:09.745Z,2.00
2018-12-24T17:31:50.981Z,1.80
2018-12-24T17:34:32.194Z,1.70
2018-12-24T17:37:12.989Z,1.60
2018-12-24T17:39:54.448Z,1.60
2018-12-24T17:42:34.814Z,1.50
2018-12-24T17:45:15.321Z,1.50
2018-12-24T17:47:55.997Z,1.50
2018-12-24T17:50:37.057Z,1.50
2018-12-24T17:53:17.485Z,1.60
2018-12-24T17:55:58.410Z,1.60
2018-12-24T17:58:39.545Z,1.50
2018-12-24T18:01:20.059Z,1.60
2018-12-24T18:04:00.790Z,1.60
2018-12-24T18:06:41.881Z,1.50
2018-12-24T18:09:23.117Z,1.40
2018-12-24T18:12:03.449Z,1.40
2018-12-24T18:14:44.897Z,1.30
2018-12-24T18:17:26.045Z,1.20
2018-12-24T18:20:06.665Z,1.20
2018-12-24T18:22:48.021Z,1.20
2018-12-24T18:25:29.029Z,1.00
2018-12-24T18:28:10.433Z,0.80
2018-12-24T18:30:51.369Z,0.70
2018-12-24T18:33:33.278Z,0.70
2018-12-24T18:36:14.094Z,0.70
2018-12-24T18:38:55.239Z,0.80
2018-12-24T18:41:36.477Z,0.90
2018-12-24T18:44:17.390Z,0.90
2018-12-24T18:46:58.664Z,1.10
2018-12-24T18:49:39.877Z,1.10
2018-12-24T18:52:20.385Z,1.00
2018-12-24T18:55:01.883Z,1.00
2018-12-24T18:57:42.588Z,1.00
2018-12-24T19:00:23.260Z,1.00
2018-12-24T19:03:04.028Z,1.00
2018-12-24T19:05:44.629Z,1.00
2018-12-24T19:08:25.724Z,1.10
2018-12-24T19:11:06.945Z,1.10
2018-12-24T19:13:47.553Z,1.20
2018-12-24T19:16:28.498Z,1.30
2018-12-24T19:19:08.853Z,1.30
2018-12-24T19:21:49.608Z,1.30
2018-12-24T19:24:30.274Z,1.30
2018-12-24T19:27:11.341Z,1.20
2018-12-24T19:29:52.570Z,1.10
2018-12-24T19:32:33.194Z,1.00
2018-12-24T19:35:14.101Z,0.90
2018-12-24T19:37:55.049Z,0.80
2018-12-24T19:40:35.959Z,0.80
2018-12-24T19:43:16.429Z,0.80
2018-12-24T19:45:56.932Z,0.80
2018-12-24T19:48:37.696Z,0.90
2018-12-24T19:51:18.492Z,1.00
2018-12-24T19:53:59.629Z,1.10
2018-12-24T19:56:40.295Z,1.10
2018-12-24T19:59:21.469Z,1.10
2018-12-24T20:02:02.821Z,1.00
2018-12-24T20:04:44.026Z,0.90
2018-12-24T20:07:25.133Z,0.90
2018-12-24T20:10:05.881Z,0.80
2018-12-24T20:12:46.856Z,0.80
2018-12-24T20:15:27.541Z,0.60
2018-12-24T20:18:08.311Z,0.60
2018-12-24T20:20:48.968Z,0.50
2018-12-24T20:23:29.818Z,0.40
2018-12-24T20:26:11.332Z,0.20
2018-12-24T20:28:52.185Z,0.00
2018-12-24T20:31:33.493Z,-0.20
2018-12-24T20:34:15.099Z,-0.30
2018-12-24T20:36:56.205Z,-0.40
2018-12-24T20:39:37.021Z,-0.50
2018-12-24T20:42:17.885Z,-0.60
2018-12-24T20:44:58.783Z,-0.60
2018-12-24T20:47:39.105Z,-0.70
2018-12-24T20:50:19.852Z,-0.80
2018-12-24T20:53:00.561Z,-0.80
2018-12-24T20:55:41.400Z,-0.80
2018-12-24T20:58:22.148Z,-0.80
2018-12-24T21:01:02.617Z,-0.80
2018-12-24T21:03:43.906Z,-0.80
2018-12-24T21:06:24.654Z,-0.80
2018-12-24T21:09:05.410Z,-0.80
2018-12-24T21:11:46.000Z,-0.80
2018-12-24T21:14:27.034Z,-0.80
2018-12-24T21:17:08.144Z,-0.80
2018-12-24T21:19:48.811Z,-0.80
2018-12-24T21:22:29.925Z,-0.80
2018-12-24T21:25:11.090Z,-0.80
2018-12-24T21:27:51.789Z,-0.90
2018-12-24T21:30:32.350Z,-1.00
2018-12-24T21:33:12.742Z,-1.00
2018-12-24T21:35:53.877Z,-1.10
2018-12-24T21:38:34.308Z,-1.10
2018-12-24T21:41:15.021Z,-1.20
2018-12-24T21:43:56.528Z,-1.00
2018-12-24T21:46:37.793Z,-0.90
2018-12-24T21:49:18.670Z,-0.80
2018-12-24T21:52:00.238Z,-0.80
2018-12-24T21:54:41.089Z,-0.80
2018-12-24T21:57:21.810Z,-0.80
2018-12-24T22:00:02.986Z,-0.80
2018-12-24T22:02:44.132Z,-0.70
2018-12-24T22:05:25.290Z,-0.80
2018-12-24T22:08:06.570Z,-0.80
2018-12-24T22:10:47.885Z,-0.80
2018-12-24T22:13:28.546Z,-0.80
2018-12-24T22:16:09.867Z,-0.90
2018-12-24T22:18:50.445Z,-0.80
2018-12-24T22:21:31.797Z,-0.80
2018-12-24T22:24:12.943Z,-0.80
2018-12-24T22:26:53.727Z,-0.80
2018-12-24T22:29:34.931Z,-0.90
2018-12-24T22:32:15.477Z,-0.90
2018-12-24T22:34:56.110Z,-0.90
2018-12-24T22:37:36.433Z,-1.00
2018-12-24T22:40:16.845Z,-1.00
2018-12-24T22:42:58.167Z,-1.10
2018-12-24T22:45:38.870Z,-1.10
2018-12-24T22:48:20.304Z,-1.10
2018-12-24T22:51:01.609Z,-1.10
2018-12-24T22:53:42.433Z,-1.10
2018-12-24T22:56:23.202Z,-1.10
2018-12-24T22:59:03.901Z,-1.10
2018-12-24T23:01:45.198Z,-1.10
2018-12-24T23:04:25.797Z,-1.10
2018-12-24T23:07:06.509Z,-1.10
2018-12-24T23:09:47.558Z,-1.20
2018-12-24T23:12:28.005Z,-1.20
2018-12-24T23:15:08.720Z,-1.20
2018-12-24T23:17:49.904Z,-1.20
2018-12-24T23:20:30.390Z,-1.20
2018-12-24T23:23:11.870Z,-1.20
2018-12-24T23:25:53.041Z,-1.20
2018-12-24T23:28:34.028Z,-1.10
2018-12-24T23:31:14.777Z,-1.10
2018-12-24T23:33:56.024Z,-1.10
2018-12-24T23:36:36.659Z,-1.20
2018-12-24T23:39:17.096Z,-1.20
2018-12-24T23:41:57.866Z,-1.20
2018-12-24T23:44:38.977Z,-1.30
2018-12-24T23:47:19.440Z,-1.30
2018-12-24T23:49:59.932Z,-1.30
2018-12-24T23:52:40.894Z,-1.30
2018-12-24T23:55:22.064Z,-1.30
2018-12-24T23:58:02.496Z,-1.30
